• Join FlightAware (Why Join?)
  • Login
  • US Flag 
10:16AM EDT


 

Airport Tracker/Info


-or-


 

Live Flight TrackerFlight Track Log ✈ UAL326 ✈ 11-May-2013 ✈ KIAD - KSEA

Flight Track Log - Related Links

Times and Time Zones

All times are in EDT time to prevent confusion due to time zone crossing. See the UAL326 flight status page for this flight to view local times or setup timezone preferences in your user account.

Time Position Orientation Groundspeed Altitude Reporting Facility
EDT Latitude Longitude Course Direction KTS MPH feet Rate Location/Type
06:58PM 38.9833 -77.4333 293° West 176 203 1,700  Level Potomac TRACON
06:59PM 39.0333 -77.4500 345° North 236 272 3,900 2,220 Climbing Potomac TRACON
07:00PM 39.2553 -77.5305 349° North  Level FlightAware Approximate
07:00PM 39.1000 -77.4667 349° North 271 312 6,200  Level Potomac TRACON
07:01PM 39.3641 -77.5698 344° North  Level FlightAware Approximate
07:01PM 39.1833 -77.5000 343° North 290 334 8,900  Level Potomac TRACON
07:02PM 39.4579 -77.6147 288° West  Level FlightAware Approximate
07:03PM 39.4953 -77.7526 293° West  Level FlightAware Approximate
07:03PM 39.3703 -77.5647 345° North 331 381 12,800  Level Washington Center
07:04PM 39.4633 -77.6183 336° Northwest 350 403 15,000 2,220 Climbing Washington Center
07:05PM 39.4967 -77.7322 291° West 342 394 17,200 2,220 Climbing Washington Center
07:06PM 39.5361 -77.8544 293° West 354 407 19,500 2,100 Climbing Washington Center
07:07PM 39.5733 -77.9794 291° West 360 414 21,500 1,860 Climbing Washington Center
07:08PM 39.6125 -78.1075 292° West 375 432 23,300 1,560 Climbing Washington Center
07:09PM 39.6514 -78.2408 291° West 386 444 24,600 1,320 Climbing Washington Center
07:09PM 39.6711 -78.2986 294° West 403 464 25,200 1,500 Climbing Cleveland Center
07:10PM 39.7114 -78.4378 291° West 410 472 26,700 1,440 Climbing Cleveland Center
07:11PM 39.7533 -78.5767 291° West 415 478 28,100 1,440 Climbing Cleveland Center
07:12PM 39.8122 -78.7292 297° West 415 478 29,600 1,500 Climbing Cleveland Center
07:13PM 39.8769 -78.8572 303° West 420 483 31,200 1,200 Climbing Cleveland Center
07:14PM 39.9414 -78.9908 302° West 428 493 32,000 360 Climbing Cleveland Center
07:15PM 40.0014 -79.1222 301° West 428 493 32,000  Level Cleveland Center
07:16PM 40.0614 -79.2539 301° West 428 493 32,000  Level Cleveland Center
07:17PM 40.1256 -79.3858 302° West 423 487 32,000  Level Cleveland Center
07:18PM 40.1853 -79.5178 301° West 423 487 32,000  Level Cleveland Center
07:19PM 40.2467 -79.6475 302° West 423 487 32,000  Level Cleveland Center
07:20PM 40.3083 -79.7800 301° West 423 487 32,000  Level Cleveland Center
07:21PM 40.3675 -79.9100 301° West 423 487 32,000  Level Cleveland Center
07:22PM 40.4267 -80.0486 299° West 423 487 32,000  Level Cleveland Center
07:23PM 40.4856 -80.1792 301° West 423 487 32,000  Level Cleveland Center
07:24PM 40.5464 -80.3125 301° West 423 487 32,000  Level Cleveland Center
07:25PM 40.6069 -80.4492 300° West 428 493 32,000  Level Cleveland Center
07:26PM 40.6717 -80.5858 302° West 433 498 32,000  Level Cleveland Center
07:27PM 40.7236 -80.7064 300° West 439 505 32,000  Level Cleveland Center
07:28PM 40.7861 -80.8408 302° West 439 505 32,000  Level Cleveland Center
07:29PM 40.8503 -80.9839 301° West 439 505 32,000  Level Cleveland Center
07:30PM 40.9081 -81.1244 299° West 439 505 32,000  Level Cleveland Center
07:31PM 40.9678 -81.2594 300° West 439 505 32,000  Level Cleveland Center
07:32PM 41.0294 -81.4033 300° West 439 505 32,000  Level Cleveland Center
07:33PM 41.0908 -81.5419 300° West 439 505 32,000  Level Cleveland Center
07:34PM 41.1522 -81.6806 300° West 439 505 32,000  Level Cleveland Center
07:35PM 41.2133 -81.8169 301° West 439 505 32,000  Level Cleveland Center
07:36PM 41.2722 -81.9533 300° West 439 505 32,000  Level Cleveland Center
07:37PM 41.3308 -82.0931 299° West 439 505 32,000  Level Cleveland Center
07:38PM 41.4017 -82.2469 302° West 439 505 32,000  Level Cleveland Center
07:39PM 41.4625 -82.3647 305° West 439 505 32,000  Level Cleveland Center
07:40PM 41.5144 -82.5050 296° West 432 497 32,000  Level Cleveland Center
07:41PM 41.5683 -82.6453 297° West 422 486 32,000  Level Cleveland Center
07:42PM 41.6261 -82.7806 300° West 412 474 32,000  Level Cleveland Center
07:43PM 41.7069 -82.9194 308° West 422 486 32,000 60 Level Cleveland Center
07:44PM 41.7836 -83.0419 310° West 427 491 32,200 480 Climbing Cleveland Center
07:45PM 41.8600 -83.1622 310° West 432 497 33,000 360 Climbing Cleveland Center
07:46PM 41.9386 -83.2825 311° West 427 491 33,000 180 Level Cleveland Center
07:47PM 42.0108 -83.4031 309° West 427 491 33,400 420 Climbing Cleveland Center
07:48PM 42.0722 -83.5289 303° West 413 475 33,900 300 Climbing Cleveland Center
07:49PM 42.1169 -83.6483 297° West 403 464 34,000  Climbing Cleveland Center
07:50PM 42.1656 -83.7797 297° West 403 464 34,000  Level Cleveland Center
07:51PM 42.2139 -83.9139 296° West 397 457 34,000 360 Level Cleveland Center
07:52PM 42.2642 -84.0486 297° West 397 457 34,800 780 Climbing Cleveland Center
07:53PM 42.3142 -84.1833 297° West 392 451 35,600 600 Climbing Cleveland Center
07:54PM 42.3619 -84.3181 296° West 392 451 36,000 180 Climbing Cleveland Center
07:55PM 42.4136 -84.4561 297° West 399 459 36,000  Level Cleveland Center
07:57PM 42.5069 -84.7094 297° West 404 465 36,000  Level Chicago Center
07:58PM 42.5578 -84.8497 296° West 414 476 36,000  Level Chicago Center
07:59PM 42.6089 -84.9928 296° West 422 486 36,000  Level Chicago Center
08:00PM 42.6614 -85.1372 296° West 428 493 36,000  Level Chicago Center
08:01PM 42.7539 -85.2931 309° West 445 512 36,000  Level Chicago Center
08:02PM 42.8383 -85.4153 313° West 446 513 36,000  Level Chicago Center
08:03PM 42.9194 -85.5353 313° West 436 502 36,000  Level Chicago Center
08:04PM 43.0008 -85.6581 312° West 438 504 36,000  Level Chicago Center
08:05PM 43.0808 -85.7778 312° West 435 501 36,000  Level Chicago Center
08:06PM 43.1589 -85.8967 312° West 433 498 36,000  Level Chicago Center
08:07PM 43.2536 -86.0408 312° West 433 498 36,000  Level Chicago Center
08:08PM 43.3336 -86.1628 312° West 434 499 36,000  Level Chicago Center
08:09PM 43.4144 -86.2850 312° West 434 499 36,000  Level Chicago Center
08:10PM 43.4961 -86.4097 312° West 441 507 36,000  Level Chicago Center
08:11PM 43.5611 -86.5117 311° West 441 507 36,000  Level Minneapolis Center
08:12PM 43.6428 -86.6372 312° West 441 507 36,000  Level Minneapolis Center
08:13PM 43.7400 -86.7911 311° West 443 510 36,000  Level Minneapolis Center
08:14PM 43.8222 -86.9175 312° West 444 511 36,000  Level Minneapolis Center
08:15PM 43.9042 -87.0461 312° West 445 512 36,000  Level Minneapolis Center
08:16PM 43.9844 -87.1742 311° West 445 512 36,000  Level Minneapolis Center
08:17PM 44.0714 -87.3103 312° West 442 509 36,000  Level Minneapolis Center
08:18PM 44.1492 -87.4397 310° West 438 504 36,000  Level Minneapolis Center
08:19PM 44.1972 -87.5928 294° West 432 497 36,000  Level Minneapolis Center
08:21PM 44.2369 -87.7500 289° West 431 496 36,000  Level Minneapolis Center
08:22PM 44.2764 -87.9061 289° West 430 495 36,000  Level Minneapolis Center
08:23PM 44.3158 -88.0639 289° West 430 495 36,000  Level Minneapolis Center
08:24PM 44.3550 -88.2225 289° West 433 498 36,000  Level Minneapolis Center
08:25PM 44.3997 -88.4056 289° West 428 493 36,000  Level Minneapolis Center
08:26PM 44.4381 -88.5650 289° West 431 496 36,000  Level Minneapolis Center
08:27PM 44.4767 -88.7208 289° West 428 493 36,000  Level Minneapolis Center
08:28PM 44.5150 -88.8761 289° West 425 489 36,000  Level Minneapolis Center
08:29PM 44.5522 -89.0356 288° West 428 493 36,000  Level Minneapolis Center
08:30PM 44.5894 -89.1939 288° West 428 493 36,000  Level Minneapolis Center
08:31PM 44.6267 -89.3539 288° West 430 495 36,000  Level Minneapolis Center
08:32PM 44.6775 -89.5650 289° West 429 494 36,000  Level Minneapolis Center
08:33PM 44.7011 -89.6714 287° West 428 493 36,000  Level Minneapolis Center
08:34PM 44.7494 -89.8858 288° West 433 498 36,000  Level Minneapolis Center
08:35PM 44.7861 -90.0472 288° West 433 498 36,000  Level Minneapolis Center
08:36PM 44.8231 -90.2064 288° West 429 494 36,000  Level Minneapolis Center
08:37PM 44.8575 -90.3606 288° West 425 489 36,000  Level Minneapolis Center
08:38PM 44.8922 -90.5169 287° West 420 483 36,000  Level Minneapolis Center
08:39PM 44.9267 -90.6747 287° West 420 483 36,000  Level Minneapolis Center
08:40PM 44.9617 -90.8328 287° West 421 484 36,000  Level Minneapolis Center
08:41PM 45.0019 -91.0175 287° West 420 483 36,000  Level Minneapolis Center
08:42PM 45.0350 -91.1742 287° West 419 482 36,000  Level Minneapolis Center
08:43PM 45.0689 -91.3314 287° West 420 483 36,000  Level Minneapolis Center
08:44PM 45.1031 -91.4886 287° West 420 483 36,000  Level Minneapolis Center
08:45PM 45.1369 -91.6472 287° West 421 484 36,000  Level Minneapolis Center
08:46PM 45.1711 -91.8053 287° West 422 486 36,000  Level Minneapolis Center
08:47PM 45.2028 -91.9633 286° West 421 484 36,000  Level Minneapolis Center
08:48PM 45.2433 -92.1547 287° West 425 489 36,000  Level Minneapolis Center
08:49PM 45.2747 -92.3119 286° West 419 482 36,000  Level Minneapolis Center
08:50PM 45.3081 -92.4717 287° West 423 487 36,000  Level Minneapolis Center
08:51PM 45.3389 -92.6300 286° West 421 484 36,000  Level Minneapolis Center
08:52PM 45.3708 -92.7889 286° West 422 486 36,000  Level Minneapolis Center
08:53PM 45.4019 -92.9458 286° West 419 482 36,000  Level Minneapolis Center
08:54PM 45.4336 -93.1033 286° West 417 480 36,000  Level Minneapolis Center
08:55PM 45.4692 -93.2911 285° West 413 475 36,000  Level Minneapolis Center
08:56PM 45.4981 -93.4478 285° West 413 475 36,000  Level Minneapolis Center
08:57PM 45.5283 -93.6036 286° West 412 474 36,000  Level Minneapolis Center
08:59PM 45.5564 -93.7597 284° West 410 472 36,000  Level Minneapolis Center
09:00PM 45.5922 -93.9469 285° West 409 471 36,000  Level Minneapolis Center
09:01PM 45.6222 -94.1044 285° West 412 474 36,000  Level Minneapolis Center
09:02PM 45.6583 -94.2928 285° West 412 474 36,000  Level Minneapolis Center
09:03PM 45.6867 -94.4500 285° West 412 474 36,000  Level Minneapolis Center
09:04PM 45.7150 -94.6067 285° West 410 472 36,000  Level Minneapolis Center
09:05PM 45.7439 -94.7656 285° West 414 476 36,000  Level Minneapolis Center
09:06PM 45.7719 -94.9253 284° West 416 479 36,000  Level Minneapolis Center
09:07PM 45.8008 -95.0881 284° West 411 473 36,000  Level Minneapolis Center
09:08PM 45.8281 -95.2503 284° West 417 480 36,000  Level Minneapolis Center
09:09PM 45.8567 -95.4083 285° West 413 475 36,000  Level Minneapolis Center
09:10PM 45.8833 -95.5689 283° West 414 476 36,000  Level Minneapolis Center
09:11PM 45.9106 -95.7281 284° West 414 476 36,000  Level Minneapolis Center
09:12PM 45.9431 -95.9200 284° West 414 476 36,000  Level Minneapolis Center
09:13PM 45.9694 -96.0797 283° West 413 475 36,000  Level Minneapolis Center
09:14PM 45.9961 -96.2389 284° West 412 474 36,000  Level Minneapolis Center
09:15PM 46.0225 -96.3964 284° West 409 471 36,000  Level Minneapolis Center
09:16PM 46.0475 -96.5561 283° West 409 471 36,000  Level Minneapolis Center
09:17PM 46.0739 -96.7119 284° West 405 466 36,000  Level Minneapolis Center
09:18PM 46.0986 -96.8692 283° West 405 466 36,000  Level Minneapolis Center
09:19PM 46.1233 -97.0250 283° West 405 466 36,000  Level Minneapolis Center
09:20PM 46.1475 -97.1853 282° West 408 470 36,000  Level Minneapolis Center
09:21PM 46.1719 -97.3400 283° West 404 465 36,000  Level Minneapolis Center
09:22PM 46.1994 -97.5256 282° West 400 460 36,000  Level Minneapolis Center
09:23PM 46.2275 -97.7075 283° West 395 455 36,000  Level Minneapolis Center
09:24PM 46.2517 -97.8644 283° West 394 453 36,000  Level Minneapolis Center
09:25PM 46.2744 -98.0169 282° West 393 452 36,000  Level Minneapolis Center
09:27PM 46.2964 -98.1625 282° West 384 442 36,000  Level Minneapolis Center
09:28PM 46.3242 -98.3531 282° West 392 451 36,000  Level Minneapolis Center
09:29PM 46.3469 -98.5100 282° West 397 457 36,000 -60 Level Minneapolis Center
09:30PM 46.3686 -98.6675 281° West 398 458 35,900  Descending Minneapolis Center
09:31PM 46.3900 -98.8250 281° West 398 458 36,000  Climbing Minneapolis Center
09:32PM 46.4125 -98.9850 282° West 401 461 36,000  Level Minneapolis Center
09:33PM 46.4292 -99.1119 281° West 402 463 36,000  Level Minneapolis Center
09:34PM 46.4631 -99.3661 281° West 407 468 36,000  Level Minneapolis Center
09:35PM 46.4889 -99.5606 281° West 409 471 36,000  Level Minneapolis Center
09:36PM 46.5125 -99.7250 282° West 413 475 36,000  Level Minneapolis Center
09:37PM 46.5333 -99.8906 280° West 417 480 36,000  Level Minneapolis Center
09:38PM 46.5519 -100.0269 281° West 415 478 36,000  Level Minneapolis Center
09:39PM 46.5711 -100.1836 280° West 412 474 36,000  Level Minneapolis Center
09:40PM 46.5964 -100.3861 280° West 420 483 36,000  Level Minneapolis Center
09:41PM 46.6175 -100.5525 281° West 421 484 36,000  Level Minneapolis Center
09:42PM 46.6381 -100.7203 280° West 422 486 36,000  Level Minneapolis Center
09:43PM 46.6583 -100.8903 280° West 425 489 36,000  Level Minneapolis Center
09:44PM 46.6814 -101.0936 279° West 426 490 36,000  Level Minneapolis Center
09:45PM 46.7028 -101.2628 281° West 426 490 36,000  Level Minneapolis Center
09:46PM 46.7164 -101.4039 278° West 434 499 36,000  Level Minneapolis Center
09:47PM 46.7394 -101.6108 279° West 434 499 36,000  Level Minneapolis Center
09:48PM 46.7597 -101.7656 281° West 430 495 36,000  Level Minneapolis Center
09:49PM 46.7747 -101.9036 279° West 430 495 36,000  Level Minneapolis Center
09:50PM 46.8000 -102.1089 280° West 430 495 36,000  Level Minneapolis Center
09:51PM 46.8186 -102.2800 279° West 429 494 36,000  Level Minneapolis Center
09:52PM 46.8367 -102.4517 279° West 429 494 36,000  Level Minneapolis Center
09:54PM 46.8544 -102.6203 279° West 424 488 36,000  Level Minneapolis Center
09:55PM 46.8747 -102.8219 278° West 420 483 36,000 -60 Level Minneapolis Center
09:56PM 46.8919 -102.9856 279° West 413 475 35,900  Descending Minneapolis Center
09:57PM 46.9100 -103.1497 279° West 411 473 36,000  Climbing Minneapolis Center
09:58PM 46.9256 -103.3131 278° West 407 468 35,900  Descending Minneapolis Center
09:58PM 46.9358 -103.4475 276° West 409 471 36,000  Climbing Salt Lake Center
09:59PM 46.9514 -103.6142 278° West 411 473 36,000  Level Salt Lake Center
10:00PM 46.9678 -103.7769 278° West 409 471 36,000  Level Salt Lake Center
10:01PM 46.9828 -103.9408 278° West 407 468 36,000  Level Salt Lake Center
10:02PM 46.9981 -104.1078 278° West 408 470 36,000 -60 Level Salt Lake Center
10:03PM 47.0125 -104.2783 277° West 414 476 35,900  Descending Salt Lake Center
10:04PM 47.0267 -104.4461 277° West 416 479 36,000  Climbing Salt Lake Center
10:06PM 47.0425 -104.6183 278° West 421 484 35,900  Descending Salt Lake Center
10:07PM 47.0575 -104.7892 277° West 422 486 36,000  Climbing Salt Lake Center
10:08PM 47.0717 -104.9578 277° West 421 484 36,000 -60 Level Salt Lake Center
10:09PM 47.0864 -105.1281 277° West 420 483 35,900 -60 Descending Salt Lake Center
10:10PM 47.0997 -105.2978 277° West 420 483 35,900  Level Salt Lake Center
10:11PM 47.1172 -105.5053 277° West 425 489 35,900  Level Salt Lake Center
10:12PM 47.1308 -105.6792 277° West 427 491 36,000  Climbing Salt Lake Center
10:13PM 47.1436 -105.8497 276° West 424 488 36,000  Level Salt Lake Center
10:14PM 47.1581 -106.0217 277° West 425 489 36,000  Level Salt Lake Center
10:15PM 47.1706 -106.1956 276° West 427 491 36,000  Level Salt Lake Center
10:16PM 47.1839 -106.3756 276° West 425 489 36,000  Level Salt Lake Center
10:17PM 47.1942 -106.5394 275° West 424 488 36,000  Level Salt Lake Center
10:18PM 47.2072 -106.7331 276° West 424 488 36,000  Level Salt Lake Center
10:19PM 47.2183 -106.8969 276° West 423 487 36,000  Level Salt Lake Center
10:20PM 47.2297 -107.0631 276° West 426 490 36,000  Level Salt Lake Center
10:21PM 47.2417 -107.2544 275° West 424 488 36,000  Level Salt Lake Center
10:22PM 47.2514 -107.4189 275° West 423 487 36,000  Level Salt Lake Center
10:23PM 47.2625 -107.6106 275° West 421 484 36,000  Level Salt Lake Center
10:24PM 47.2728 -107.7728 275° West 419 482 36,000  Level Salt Lake Center
10:25PM 47.2817 -107.9364 275° West 419 482 36,000 -600 Level Salt Lake Center
10:26PM 47.2928 -108.1267 275° West 419 482 34,800 -1,080 Descending Salt Lake Center
10:27PM 47.3019 -108.2894 275° West 423 487 33,900 -420 Descending Salt Lake Center
10:28PM 47.3097 -108.4664 274° West 431 496 34,000  Climbing Salt Lake Center
10:29PM 47.3200 -108.6442 275° West 436 502 34,000  Level Salt Lake Center
10:30PM 47.3272 -108.8222 273° West 436 502 34,000  Level Salt Lake Center
10:31PM 47.3361 -108.9972 274° West 431 496 34,000  Level Salt Lake Center
10:32PM 47.3439 -109.1744 274° West 435 501 34,000 -60 Level Salt Lake Center
10:33PM 47.3519 -109.3500 274° West 432 497 33,900 -60 Descending Salt Lake Center
10:34PM 47.3600 -109.5272 274° West 433 498 33,900  Level Salt Lake Center
10:35PM 47.3689 -109.7397 274° West 433 498 34,000  Climbing Salt Lake Center
10:36PM 47.3753 -109.9181 273° West 435 501 34,000 -60 Level Salt Lake Center
10:37PM 47.3817 -110.0961 273° West 436 502 33,900  Descending Salt Lake Center
10:38PM 47.3886 -110.2764 273° West 439 505 34,000  Climbing Salt Lake Center
10:39PM 47.3967 -110.4550 274° West 439 505 34,000 -60 Level Salt Lake Center
10:40PM 47.4022 -110.6358 273° West 441 507 33,900  Descending Salt Lake Center
10:41PM 47.4078 -110.8178 273° West 442 509 34,000  Climbing Salt Lake Center
10:42PM 47.4122 -111.0008 272° West 445 512 34,000  Level Salt Lake Center
10:43PM 47.4172 -111.1842 272° West 442 509 34,000 -60 Level Salt Lake Center
10:44PM 47.4222 -111.3683 272° West 442 509 33,900  Descending Salt Lake Center
10:45PM 47.4269 -111.5519 272° West 442 509 34,000  Climbing Salt Lake Center
10:46PM 47.4311 -111.7336 272° West 441 507 34,000 -60 Level Salt Lake Center
10:47PM 47.4347 -111.9136 272° West 438 504 33,900 -60 Descending Salt Lake Center
10:48PM 47.4389 -112.0917 272° West 435 501 33,900  Level Salt Lake Center
10:49PM 47.4433 -112.2714 272° West 437 503 34,000 -480 Climbing Salt Lake Center
10:50PM 47.4447 -112.4436 271° West 427 491 33,000 -1,680 Descending Salt Lake Center
10:51PM 47.4483 -112.6244 272° West 434 499 30,700 -1,560 Descending Salt Lake Center
10:52PM 47.4506 -112.8125 271° West 451 519 29,900 -360 Descending Salt Lake Center
10:53PM 47.4542 -113.0056 272° West 462 532 30,000  Climbing Salt Lake Center
10:54PM 47.4561 -113.1944 271° West 461 531 30,000  Level Salt Lake Center
10:55PM 47.4578 -113.4183 271° West 456 525 30,000 -60 Level Salt Lake Center
10:56PM 47.4603 -113.6047 271° West 454 522 29,900  Descending Salt Lake Center
10:57PM 47.4608 -113.7917 270° West 455 524 30,000  Climbing Salt Lake Center
10:58PM 47.4619 -113.9800 271° West 457 526 30,000 -180 Level Salt Lake Center
10:59PM 47.4628 -114.1689 270° West 458 527 29,700 -840 Descending Salt Lake Center
11:00PM 47.4633 -114.3575 270° West 457 526 28,400 -900 Descending Salt Lake Center
11:01PM 47.4628 -114.5458 270° West 457 526 27,900 -240 Descending Salt Lake Center
11:02PM 47.4619 -114.7375 270° West 463 533 28,000  Climbing Salt Lake Center
11:03PM 47.4619 -114.9272 270° West 462 532 28,000  Level Salt Lake Center
11:04PM 47.4608 -115.1172 270° West 462 532 28,000  Level Salt Lake Center
11:05PM 47.4600 -115.3058 270° West 460 529 28,000  Level Salt Lake Center
11:06PM 47.4578 -115.4950 269° West 460 529 28,000 -300 Level Salt Lake Center
11:07PM 47.4578 -115.6819 270° West 456 525 27,400 -1,080 Descending Salt Lake Center
11:08PM 47.4689 -115.8644 275° West 448 516 25,900 -780 Descending Salt Lake Center
11:09PM 47.4819 -116.0483 276° West 449 517 25,900  Level Salt Lake Center
11:11PM 47.4936 -116.2586 275° West 449 517 25,900  Level Seattle Center
11:12PM 47.5036 -116.4433 275° West 452 520 26,000  Climbing Seattle Center
11:13PM 47.5139 -116.6247 275° West 446 513 26,000 -60 Level Seattle Center
11:14PM 47.5231 -116.8028 274° West 438 504 25,900 -60 Descending Seattle Center
11:15PM 47.5328 -116.9792 275° West 431 496 25,900  Level Seattle Center
11:16PM 47.5433 -117.1625 275° West 431 496 26,000  Climbing Seattle Center
11:17PM 47.5503 -117.3117 274° West 432 497 25,900  Descending Seattle Center
11:18PM 47.5606 -117.5233 274° West 431 496 26,000  Climbing Seattle Center
11:19PM 47.5717 -117.6997 275° West 431 496 26,000  Level Seattle Center
11:20PM 47.5889 -117.8767 278° West 435 501 26,000  Level Seattle Center
11:21PM 47.6061 -118.0511 278° West 431 496 26,000  Level Seattle Center
11:22PM 47.6222 -118.2269 278° West 433 498 26,000  Level Seattle Center
11:23PM 47.6381 -118.4025 278° West 432 497 26,000 -60 Level Seattle Center
11:24PM 47.6539 -118.5783 278° West 431 496 25,900  Descending Seattle Center
11:25PM 47.6689 -118.7531 277° West 429 494 26,000  Climbing Seattle Center
11:26PM 47.6839 -118.9278 277° West 429 494 25,900  Descending Seattle Center
11:27PM 47.6989 -119.1025 277° West 429 494 26,000  Climbing Seattle Center
11:28PM 47.7144 -119.2775 278° West 428 493 26,000  Level Seattle Center
11:29PM 47.7289 -119.4522 277° West 428 493 26,000 -60 Level Seattle Center
11:30PM 47.7419 -119.6256 276° West 425 489 25,900  Descending Seattle Center
11:31PM 47.7547 -119.8014 276° West 427 491 26,000  Climbing Seattle Center
11:32PM 47.7675 -119.9761 276° West 428 493 26,000  Level Seattle Center
11:33PM 47.7803 -120.1514 276° West 429 494 26,000  Level Seattle Center
11:34PM 47.7897 -120.3261 275° West 425 489 26,000 -120 Level Seattle Center
11:35PM 47.7903 -120.5011 270° West 424 488 25,800 -1,200 Descending Seattle Center
11:36PM 47.7883 -120.6753 269° West 421 484 23,600 -2,400 Descending Seattle Center
11:37PM 47.7853 -120.8525 269° West 406 467 21,000 -2,580 Descending Seattle Center
11:38PM 47.7856 -121.0131 270° West 394 453 18,500 -2,460 Descending Seattle Center
11:39PM 47.7833 -121.1678 269° West 381 438 16,100 -2,520 Descending Seattle Center
11:40PM 47.7811 -121.3014 269° West 369 425 14,100 -2,040 Descending Seattle Center
11:41PM 47.7764 -121.4817 268° West 354 407 12,000 -960 Descending Seattle Center
11:42PM 47.7733 -121.6161 268° West 329 379 12,000  Level Seattle Center
11:43PM 47.7708 -121.7494 268° West 322 371 12,000 -540 Level Seattle Center
11:44PM 47.7667 -121.8733 267° West 282 325 11,000 -1,800 Descending Seattle Center
11:45PM 47.7594 -121.9833 264° West 269 310 8,400 -2,520 Descending Seattle Center
11:46PM 47.7453 -122.0906 259° West 264 304 6,000 -1,860 Descending Seattle Center
11:47PM 47.7169 -122.1869 246° West 256 295 4,700 -1,140 Descending Seattle Center
11:48PM 47.6875 -122.2678 242° Southwest 224 258 3,800 -960 Descending Seattle Center
11:48PM 47.6722 -122.2811 210° Southwest 205 236 3,500 -600 Descending Seattle Center
11:49PM 47.6372 -122.3097 209° Southwest 210 242 3,200 -300 Descending Seattle Center
11:49PM 47.6197 -122.3103 181° South 206 237 3,200 -420 Level Seattle Center
11:50PM 47.5822 -122.3103 180° South 196 226 2,800 -600 Descending Seattle Center